sensor_id;sensor_type;location;lat;lon;timestamp;P1;durP1;ratioP1;P2;durP2;ratioP2
18076;SDS011;9165;45.714;11.362;2024-02-15T00:00:16;14.33;;;9.03;;
18076;SDS011;9165;45.714;11.362;2024-02-15T00:02:43;16.17;;;10.40;;
18076;SDS011;9165;45.714;11.362;2024-02-15T00:05:09;16.27;;;9.73;;
18076;SDS011;9165;45.714;11.362;2024-02-15T00:07:36;17.17;;;10.30;;
18076;SDS011;9165;45.714;11.362;2024-02-15T00:10:05;15.60;;;8.87;;
18076;SDS011;9165;45.714;11.362;2024-02-15T00:12:33;16.20;;;10.00;;
18076;SDS011;9165;45.714;11.362;2024-02-15T00:15:00;12.67;;;8.43;;
18076;SDS011;9165;45.714;11.362;2024-02-15T00:17:27;14.47;;;8.90;;
18076;SDS011;9165;45.714;11.362;2024-02-15T00:19:54;15.53;;;9.23;;
18076;SDS011;9165;45.714;11.362;2024-02-15T00:22:21;16.60;;;9.73;;
18076;SDS011;9165;45.714;11.362;2024-02-15T00:24:47;13.00;;;9.00;;
18076;SDS011;9165;45.714;11.362;2024-02-15T00:27:15;15.23;;;8.83;;
18076;SDS011;9165;45.714;11.362;2024-02-15T00:29:42;14.43;;;9.83;;
18076;SDS011;9165;45.714;11.362;2024-02-15T00:32:09;14.20;;;9.23;;
18076;SDS011;9165;45.714;11.362;2024-02-15T00:34:36;13.47;;;8.23;;
18076;SDS011;9165;45.714;11.362;2024-02-15T00:37:03;13.60;;;8.47;;
18076;SDS011;9165;45.714;11.362;2024-02-15T00:39:30;13.40;;;8.77;;
18076;SDS011;9165;45.714;11.362;2024-02-15T00:41:57;14.07;;;8.67;;
18076;SDS011;9165;45.714;11.362;2024-02-15T00:44:26;16.60;;;9.53;;
18076;SDS011;9165;45.714;11.362;2024-02-15T00:46:53;13.20;;;7.97;;
18076;SDS011;9165;45.714;11.362;2024-02-15T00:49:21;15.63;;;9.47;;
18076;SDS011;9165;45.714;11.362;2024-02-15T00:51:48;15.83;;;9.53;;
18076;SDS011;9165;45.714;11.362;2024-02-15T00:54:15;14.00;;;8.93;;
18076;SDS011;9165;45.714;11.362;2024-02-15T00:56:41;12.50;;;8.27;;
18076;SDS011;9165;45.714;11.362;2024-02-15T00:59:08;15.53;;;9.10;;
18076;SDS011;9165;45.714;11.362;2024-02-15T01:01:36;14.20;;;8.67;;
18076;SDS011;9165;45.714;11.362;2024-02-15T01:04:03;21.23;;;9.37;;
18076;SDS011;9165;45.714;11.362;2024-02-15T01:06:30;14.73;;;9.87;;
18076;SDS011;9165;45.714;11.362;2024-02-15T01:08:56;15.70;;;9.10;;
18076;SDS011;9165;45.714;11.362;2024-02-15T01:11:23;12.70;;;8.50;;
18076;SDS011;9165;45.714;11.362;2024-02-15T01:13:50;13.23;;;8.93;;
18076;SDS011;9165;45.714;11.362;2024-02-15T01:16:18;12.87;;;8.33;;
18076;SDS011;9165;45.714;11.362;2024-02-15T01:18:48;17.40;;;9.53;;
18076;SDS011;9165;45.714;11.362;2024-02-15T01:21:15;15.27;;;9.70;;
18076;SDS011;9165;45.714;11.362;2024-02-15T01:23:42;14.90;;;9.70;;
18076;SDS011;9165;45.714;11.362;2024-02-15T01:26:09;13.33;;;8.20;;
18076;SDS011;9165;45.714;11.362;2024-02-15T01:28:37;15.60;;;8.70;;
18076;SDS011;9165;45.714;11.362;2024-02-15T01:31:03;13.47;;;8.53;;
18076;SDS011;9165;45.714;11.362;2024-02-15T01:33:31;14.00;;;8.13;;
18076;SDS011;9165;45.714;11.362;2024-02-15T01:36:00;13.73;;;8.70;;
18076;SDS011;9165;45.714;11.362;2024-02-15T01:38:26;15.97;;;8.20;;
18076;SDS011;9165;45.714;11.362;2024-02-15T01:40:53;13.20;;;8.53;;
18076;SDS011;9165;45.714;11.362;2024-02-15T01:43:19;16.80;;;8.87;;
18076;SDS011;9165;45.714;11.362;2024-02-15T01:45:46;14.80;;;8.80;;
18076;SDS011;9165;45.714;11.362;2024-02-15T01:48:13;12.83;;;8.47;;
18076;SDS011;9165;45.714;11.362;2024-02-15T01:50:40;14.20;;;8.57;;
18076;SDS011;9165;45.714;11.362;2024-02-15T01:53:09;13.07;;;8.07;;
18076;SDS011;9165;45.714;11.362;2024-02-15T01:55:37;12.50;;;8.43;;
18076;SDS011;9165;45.714;11.362;2024-02-15T01:58:04;18.33;;;9.83;;
18076;SDS011;9165;45.714;11.362;2024-02-15T02:00:32;16.97;;;7.63;;
18076;SDS011;9165;45.714;11.362;2024-02-15T02:02:58;15.30;;;8.23;;
18076;SDS011;9165;45.714;11.362;2024-02-15T02:05:27;14.77;;;8.67;;
18076;SDS011;9165;45.714;11.362;2024-02-15T02:07:54;12.10;;;7.93;;
18076;SDS011;9165;45.714;11.362;2024-02-15T02:10:24;14.97;;;8.97;;
18076;SDS011;9165;45.714;11.362;2024-02-15T02:12:52;14.67;;;7.77;;
18076;SDS011;9165;45.714;11.362;2024-02-15T02:15:19;15.73;;;8.73;;
18076;SDS011;9165;45.714;11.362;2024-02-15T02:17:48;14.20;;;7.90;;
18076;SDS011;9165;45.714;11.362;2024-02-15T02:20:14;14.47;;;7.90;;
18076;SDS011;9165;45.714;11.362;2024-02-15T02:22:41;14.43;;;8.23;;
18076;SDS011;9165;45.714;11.362;2024-02-15T02:25:12;11.57;;;7.80;;
18076;SDS011;9165;45.714;11.362;2024-02-15T02:27:39;14.70;;;7.73;;
18076;SDS011;9165;45.714;11.362;2024-02-15T02:30:12;14.53;;;8.40;;
18076;SDS011;9165;45.714;11.362;2024-02-15T02:32:40;15.17;;;7.47;;
18076;SDS011;9165;45.714;11.362;2024-02-15T02:35:07;11.73;;;7.60;;
18076;SDS011;9165;45.714;11.362;2024-02-15T02:37:37;12.37;;;8.23;;
18076;SDS011;9165;45.714;11.362;2024-02-15T02:40:04;12.23;;;7.83;;
18076;SDS011;9165;45.714;11.362;2024-02-15T02:42:33;18.20;;;8.10;;
18076;SDS011;9165;45.714;11.362;2024-02-15T02:45:00;14.63;;;8.43;;
18076;SDS011;9165;45.714;11.362;2024-02-15T02:47:27;14.93;;;8.87;;
18076;SDS011;9165;45.714;11.362;2024-02-15T02:49:53;13.97;;;7.73;;
18076;SDS011;9165;45.714;11.362;2024-02-15T02:52:20;14.63;;;8.63;;
18076;SDS011;9165;45.714;11.362;2024-02-15T02:54:46;15.17;;;8.57;;
18076;SDS011;9165;45.714;11.362;2024-02-15T02:57:13;13.07;;;8.20;;
18076;SDS011;9165;45.714;11.362;2024-02-15T02:59:41;14.87;;;8.73;;
18076;SDS011;9165;45.714;11.362;2024-02-15T03:02:07;13.13;;;8.17;;
18076;SDS011;9165;45.714;11.362;2024-02-15T03:04:34;13.17;;;7.90;;
18076;SDS011;9165;45.714;11.362;2024-02-15T03:07:01;13.43;;;8.47;;
18076;SDS011;9165;45.714;11.362;2024-02-15T03:09:27;15.20;;;7.40;;
18076;SDS011;9165;45.714;11.362;2024-02-15T03:11:54;15.73;;;8.77;;
18076;SDS011;9165;45.714;11.362;2024-02-15T03:14:21;11.17;;;7.77;;
18076;SDS011;9165;45.714;11.362;2024-02-15T03:16:49;12.40;;;8.13;;
18076;SDS011;9165;45.714;11.362;2024-02-15T03:19:15;13.57;;;8.33;;
18076;SDS011;9165;45.714;11.362;2024-02-15T03:21:42;18.63;;;8.83;;
18076;SDS011;9165;45.714;11.362;2024-02-15T03:24:11;15.93;;;9.83;;
18076;SDS011;9165;45.714;11.362;2024-02-15T03:26:38;19.07;;;9.40;;
18076;SDS011;9165;45.714;11.362;2024-02-15T03:29:05;15.50;;;8.63;;
18076;SDS011;9165;45.714;11.362;2024-02-15T03:31:32;15.57;;;7.77;;
18076;SDS011;9165;45.714;11.362;2024-02-15T03:34:03;14.60;;;8.50;;
18076;SDS011;9165;45.714;11.362;2024-02-15T03:36:29;13.90;;;8.73;;
18076;SDS011;9165;45.714;11.362;2024-02-15T03:38:56;16.63;;;9.20;;
18076;SDS011;9165;45.714;11.362;2024-02-15T03:41:23;14.23;;;8.30;;
18076;SDS011;9165;45.714;11.362;2024-02-15T03:43:50;15.77;;;8.57;;
18076;SDS011;9165;45.714;11.362;2024-02-15T03:46:17;14.20;;;7.97;;
18076;SDS011;9165;45.714;11.362;2024-02-15T03:48:44;13.60;;;8.40;;
18076;SDS011;9165;45.714;11.362;2024-02-15T03:51:15;18.10;;;9.37;;
18076;SDS011;9165;45.714;11.362;2024-02-15T03:53:42;17.87;;;9.57;;
18076;SDS011;9165;45.714;11.362;2024-02-15T03:56:08;16.23;;;8.80;;
18076;SDS011;9165;45.714;11.362;2024-02-15T03:58:35;15.67;;;9.20;;
18076;SDS011;9165;45.714;11.362;2024-02-15T04:01:02;15.43;;;9.03;;
18076;SDS011;9165;45.714;11.362;2024-02-15T04:03:31;20.87;;;9.77;;
18076;SDS011;9165;45.714;11.362;2024-02-15T04:05:59;18.33;;;9.67;;
18076;SDS011;9165;45.714;11.362;2024-02-15T04:08:28;19.53;;;10.60;;
18076;SDS011;9165;45.714;11.362;2024-02-15T04:10:54;17.03;;;9.97;;
18076;SDS011;9165;45.714;11.362;2024-02-15T04:13:22;14.37;;;8.70;;
18076;SDS011;9165;45.714;11.362;2024-02-15T04:15:49;19.83;;;9.63;;
18076;SDS011;9165;45.714;11.362;2024-02-15T04:18:18;16.43;;;9.60;;
18076;SDS011;9165;45.714;11.362;2024-02-15T04:20:44;14.00;;;9.20;;
18076;SDS011;9165;45.714;11.362;2024-02-15T04:23:11;19.57;;;10.07;;
18076;SDS011;9165;45.714;11.362;2024-02-15T04:25:39;16.03;;;9.27;;
18076;SDS011;9165;45.714;11.362;2024-02-15T04:28:09;22.87;;;8.70;;
18076;SDS011;9165;45.714;11.362;2024-02-15T04:30:36;15.90;;;9.00;;
18076;SDS011;9165;45.714;11.362;2024-02-15T04:33:04;17.30;;;10.67;;
18076;SDS011;9165;45.714;11.362;2024-02-15T04:35:30;14.17;;;9.30;;
18076;SDS011;9165;45.714;11.362;2024-02-15T04:37:57;13.53;;;8.90;;
18076;SDS011;9165;45.714;11.362;2024-02-15T04:40:24;17.33;;;10.20;;
18076;SDS011;9165;45.714;11.362;2024-02-15T04:42:52;19.20;;;10.67;;
18076;SDS011;9165;45.714;11.362;2024-02-15T04:45:19;21.07;;;10.63;;
18076;SDS011;9165;45.714;11.362;2024-02-15T04:47:47;20.30;;;11.53;;
18076;SDS011;9165;45.714;11.362;2024-02-15T04:50:17;17.63;;;9.50;;
18076;SDS011;9165;45.714;11.362;2024-02-15T04:52:46;19.70;;;10.23;;
18076;SDS011;9165;45.714;11.362;2024-02-15T04:55:13;15.23;;;9.00;;
18076;SDS011;9165;45.714;11.362;2024-02-15T04:57:40;21.83;;;10.43;;
18076;SDS011;9165;45.714;11.362;2024-02-15T05:00:09;15.23;;;9.90;;
18076;SDS011;9165;45.714;11.362;2024-02-15T05:02:38;16.43;;;9.93;;
18076;SDS011;9165;45.714;11.362;2024-02-15T05:05:06;21.00;;;10.23;;
18076;SDS011;9165;45.714;11.362;2024-02-15T05:07:38;16.13;;;11.03;;
18076;SDS011;9165;45.714;11.362;2024-02-15T05:10:05;14.67;;;9.03;;
18076;SDS011;9165;45.714;11.362;2024-02-15T05:12:37;16.00;;;9.93;;
18076;SDS011;9165;45.714;11.362;2024-02-15T05:15:05;14.33;;;9.07;;
18076;SDS011;9165;45.714;11.362;2024-02-15T05:17:37;15.77;;;9.50;;
18076;SDS011;9165;45.714;11.362;2024-02-15T05:20:07;17.93;;;10.03;;
18076;SDS011;9165;45.714;11.362;2024-02-15T05:22:39;18.60;;;10.07;;
18076;SDS011;9165;45.714;11.362;2024-02-15T05:25:13;19.33;;;11.33;;
18076;SDS011;9165;45.714;11.362;2024-02-15T05:27:41;19.60;;;10.50;;
18076;SDS011;9165;45.714;11.362;2024-02-15T05:30:11;15.50;;;10.07;;
18076;SDS011;9165;45.714;11.362;2024-02-15T05:32:43;22.23;;;11.03;;
18076;SDS011;9165;45.714;11.362;2024-02-15T05:35:10;14.63;;;9.23;;
18076;SDS011;9165;45.714;11.362;2024-02-15T05:37:40;15.75;;;10.05;;
18076;SDS011;9165;45.714;11.362;2024-02-15T05:40:11;19.97;;;10.80;;
18076;SDS011;9165;45.714;11.362;2024-02-15T05:42:51;13.60;;;8.93;;
18076;SDS011;9165;45.714;11.362;2024-02-15T05:45:33;20.97;;;9.83;;
18076;SDS011;9165;45.714;11.362;2024-02-15T05:48:23;22.60;;;10.80;;
18076;SDS011;9165;45.714;11.362;2024-02-15T05:50:59;17.53;;;9.63;;
18076;SDS011;9165;45.714;11.362;2024-02-15T05:53:26;18.73;;;10.93;;
18076;SDS011;9165;45.714;11.362;2024-02-15T05:55:54;18.33;;;11.43;;
18076;SDS011;9165;45.714;11.362;2024-02-15T05:58:23;17.60;;;10.60;;
18076;SDS011;9165;45.714;11.362;2024-02-15T06:00:50;17.83;;;10.57;;
18076;SDS011;9165;45.714;11.362;2024-02-15T06:03:21;21.10;;;11.33;;
18076;SDS011;9165;45.714;11.362;2024-02-15T06:05:50;19.67;;;10.57;;
18076;SDS011;9165;45.714;11.362;2024-02-15T06:08:16;18.70;;;10.87;;
18076;SDS011;9165;45.714;11.362;2024-02-15T06:10:55;19.43;;;10.80;;
18076;SDS011;9165;45.714;11.362;2024-02-15T06:13:38;26.07;;;15.40;;
18076;SDS011;9165;45.714;11.362;2024-02-15T06:25:37;21.10;;;11.57;;
18076;SDS011;9165;45.714;11.362;2024-02-15T06:28:23;23.00;;;12.83;;
18076;SDS011;9165;45.714;11.362;2024-02-15T06:31:14;15.60;;;10.67;;
18076;SDS011;9165;45.714;11.362;2024-02-15T06:34:10;20.10;;;11.87;;
18076;SDS011;9165;45.714;11.362;2024-02-15T06:37:03;22.53;;;11.63;;
18076;SDS011;9165;45.714;11.362;2024-02-15T06:39:47;17.63;;;11.17;;
18076;SDS011;9165;45.714;11.362;2024-02-15T06:42:33;22.23;;;11.80;;
18076;SDS011;9165;45.714;11.362;2024-02-15T06:45:04;23.33;;;14.30;;
18076;SDS011;9165;45.714;11.362;2024-02-15T06:47:39;20.57;;;11.50;;
18076;SDS011;9165;45.714;11.362;2024-02-15T06:50:10;22.53;;;13.10;;
18076;SDS011;9165;45.714;11.362;2024-02-15T06:52:52;23.73;;;12.33;;
18076;SDS011;9165;45.714;11.362;2024-02-15T06:55:23;22.57;;;12.60;;
18076;SDS011;9165;45.714;11.362;2024-02-15T06:57:52;28.07;;;13.57;;
18076;SDS011;9165;45.714;11.362;2024-02-15T07:00:21;24.93;;;13.40;;
18076;SDS011;9165;45.714;11.362;2024-02-15T07:06:04;26.67;;;14.47;;
18076;SDS011;9165;45.714;11.362;2024-02-15T07:08:52;23.13;;;14.00;;
18076;SDS011;9165;45.714;11.362;2024-02-15T07:14:39;24.40;;;13.87;;
18076;SDS011;9165;45.714;11.362;2024-02-15T07:17:31;24.27;;;14.23;;
18076;SDS011;9165;45.714;11.362;2024-02-15T07:20:15;27.77;;;13.30;;
18076;SDS011;9165;45.714;11.362;2024-02-15T07:22:42;22.20;;;13.37;;
18076;SDS011;9165;45.714;11.362;2024-02-15T07:25:13;25.83;;;13.60;;
18076;SDS011;9165;45.714;11.362;2024-02-15T07:27:44;20.00;;;13.43;;
18076;SDS011;9165;45.714;11.362;2024-02-15T07:30:16;22.03;;;13.33;;
18076;SDS011;9165;45.714;11.362;2024-02-15T07:32:44;22.87;;;13.90;;
18076;SDS011;9165;45.714;11.362;2024-02-15T07:35:16;22.77;;;13.60;;
18076;SDS011;9165;45.714;11.362;2024-02-15T07:37:53;22.43;;;13.80;;
18076;SDS011;9165;45.714;11.362;2024-02-15T07:40:26;26.03;;;14.50;;
18076;SDS011;9165;45.714;11.362;2024-02-15T07:42:57;26.23;;;14.83;;
18076;SDS011;9165;45.714;11.362;2024-02-15T07:48:06;30.93;;;17.03;;
18076;SDS011;9165;45.714;11.362;2024-02-15T07:50:38;32.23;;;18.50;;
18076;SDS011;9165;45.714;11.362;2024-02-15T07:56:06;33.63;;;18.23;;
18076;SDS011;9165;45.714;11.362;2024-02-15T08:04:41;38.67;;;20.97;;
18076;SDS011;9165;45.714;11.362;2024-02-15T08:07:09;36.80;;;20.40;;
18076;SDS011;9165;45.714;11.362;2024-02-15T08:09:36;33.30;;;17.80;;
18076;SDS011;9165;45.714;11.362;2024-02-15T08:12:03;30.93;;;18.13;;
18076;SDS011;9165;45.714;11.362;2024-02-15T08:14:30;29.23;;;16.20;;
18076;SDS011;9165;45.714;11.362;2024-02-15T08:16:56;27.90;;;17.40;;
18076;SDS011;9165;45.714;11.362;2024-02-15T08:19:23;30.23;;;17.60;;
18076;SDS011;9165;45.714;11.362;2024-02-15T08:21:51;30.07;;;18.37;;
18076;SDS011;9165;45.714;11.362;2024-02-15T08:24:19;31.10;;;17.53;;
18076;SDS011;9165;45.714;11.362;2024-02-15T08:26:45;28.40;;;16.73;;
18076;SDS011;9165;45.714;11.362;2024-02-15T08:29:12;28.33;;;15.97;;
18076;SDS011;9165;45.714;11.362;2024-02-15T08:31:40;29.60;;;17.73;;
18076;SDS011;9165;45.714;11.362;2024-02-15T08:34:07;29.63;;;16.90;;
18076;SDS011;9165;45.714;11.362;2024-02-15T08:36:36;25.67;;;15.83;;
18076;SDS011;9165;45.714;11.362;2024-02-15T08:39:06;28.60;;;15.03;;
18076;SDS011;9165;45.714;11.362;2024-02-15T08:41:35;27.37;;;15.30;;
18076;SDS011;9165;45.714;11.362;2024-02-15T08:44:01;26.03;;;15.17;;
18076;SDS011;9165;45.714;11.362;2024-02-15T08:46:33;26.27;;;13.37;;
18076;SDS011;9165;45.714;11.362;2024-02-15T08:49:01;22.97;;;14.60;;
18076;SDS011;9165;45.714;11.362;2024-02-15T08:51:28;25.90;;;14.60;;
18076;SDS011;9165;45.714;11.362;2024-02-15T08:53:55;26.53;;;14.83;;
18076;SDS011;9165;45.714;11.362;2024-02-15T08:56:23;23.10;;;14.73;;
18076;SDS011;9165;45.714;11.362;2024-02-15T08:58:50;30.67;;;16.33;;
18076;SDS011;9165;45.714;11.362;2024-02-15T09:01:16;31.87;;;16.30;;
18076;SDS011;9165;45.714;11.362;2024-02-15T09:03:43;29.97;;;16.53;;
18076;SDS011;9165;45.714;11.362;2024-02-15T09:06:10;27.17;;;15.80;;
18076;SDS011;9165;45.714;11.362;2024-02-15T09:08:36;27.63;;;16.47;;
18076;SDS011;9165;45.714;11.362;2024-02-15T09:11:03;28.27;;;16.83;;
18076;SDS011;9165;45.714;11.362;2024-02-15T09:13:31;27.50;;;14.50;;
18076;SDS011;9165;45.714;11.362;2024-02-15T09:16:02;24.60;;;14.53;;
18076;SDS011;9165;45.714;11.362;2024-02-15T09:18:29;26.27;;;14.40;;
18076;SDS011;9165;45.714;11.362;2024-02-15T09:20:56;26.73;;;16.03;;
18076;SDS011;9165;45.714;11.362;2024-02-15T09:23:22;23.70;;;14.33;;
18076;SDS011;9165;45.714;11.362;2024-02-15T09:25:49;23.97;;;14.53;;
18076;SDS011;9165;45.714;11.362;2024-02-15T09:28:17;37.40;;;15.07;;
18076;SDS011;9165;45.714;11.362;2024-02-15T09:30:48;24.60;;;15.17;;
18076;SDS011;9165;45.714;11.362;2024-02-15T09:33:17;32.13;;;14.47;;
18076;SDS011;9165;45.714;11.362;2024-02-15T09:35:44;36.10;;;17.50;;
18076;SDS011;9165;45.714;11.362;2024-02-15T09:38:11;38.53;;;16.33;;
18076;SDS011;9165;45.714;11.362;2024-02-15T09:40:41;27.90;;;15.60;;
18076;SDS011;9165;45.714;11.362;2024-02-15T09:43:09;31.60;;;15.63;;
18076;SDS011;9165;45.714;11.362;2024-02-15T09:45:38;28.50;;;15.90;;
18076;SDS011;9165;45.714;11.362;2024-02-15T09:48:06;34.73;;;17.77;;
18076;SDS011;9165;45.714;11.362;2024-02-15T09:50:34;30.60;;;16.13;;
18076;SDS011;9165;45.714;11.362;2024-02-15T09:53:02;35.47;;;17.47;;
18076;SDS011;9165;45.714;11.362;2024-02-15T09:55:31;27.13;;;16.93;;
18076;SDS011;9165;45.714;11.362;2024-02-15T09:58:00;27.23;;;17.53;;
18076;SDS011;9165;45.714;11.362;2024-02-15T10:00:29;34.17;;;17.43;;
18076;SDS011;9165;45.714;11.362;2024-02-15T10:02:56;32.17;;;17.87;;
18076;SDS011;9165;45.714;11.362;2024-02-15T10:05:28;29.33;;;17.00;;
18076;SDS011;9165;45.714;11.362;2024-02-15T10:07:54;26.10;;;15.93;;
18076;SDS011;9165;45.714;11.362;2024-02-15T10:10:21;36.97;;;17.13;;
18076;SDS011;9165;45.714;11.362;2024-02-15T10:12:48;32.90;;;18.03;;
18076;SDS011;9165;45.714;11.362;2024-02-15T10:15:30;30.23;;;17.30;;
18076;SDS011;9165;45.714;11.362;2024-02-15T10:17:57;34.23;;;18.17;;
18076;SDS011;9165;45.714;11.362;2024-02-15T10:20:24;28.03;;;17.33;;
18076;SDS011;9165;45.714;11.362;2024-02-15T10:22:53;32.20;;;17.67;;
18076;SDS011;9165;45.714;11.362;2024-02-15T10:25:35;37.60;;;19.17;;
18076;SDS011;9165;45.714;11.362;2024-02-15T10:28:02;35.83;;;18.03;;
18076;SDS011;9165;45.714;11.362;2024-02-15T10:30:32;29.60;;;18.53;;
18076;SDS011;9165;45.714;11.362;2024-02-15T10:32:58;32.37;;;18.53;;
18076;SDS011;9165;45.714;11.362;2024-02-15T10:35:25;34.00;;;19.27;;
18076;SDS011;9165;45.714;11.362;2024-02-15T10:37:51;41.63;;;25.60;;
18076;SDS011;9165;45.714;11.362;2024-02-15T10:40:20;35.17;;;20.40;;
18076;SDS011;9165;45.714;11.362;2024-02-15T10:42:47;28.57;;;18.87;;
18076;SDS011;9165;45.714;11.362;2024-02-15T10:45:14;39.70;;;25.27;;
18076;SDS011;9165;45.714;11.362;2024-02-15T10:47:43;40.00;;;25.07;;
18076;SDS011;9165;45.714;11.362;2024-02-15T10:50:10;33.47;;;20.93;;
18076;SDS011;9165;45.714;11.362;2024-02-15T10:52:37;32.27;;;20.43;;
18076;SDS011;9165;45.714;11.362;2024-02-15T10:55:10;31.00;;;19.67;;
18076;SDS011;9165;45.714;11.362;2024-02-15T10:57:42;32.83;;;20.40;;
18076;SDS011;9165;45.714;11.362;2024-02-15T11:00:11;31.30;;;20.67;;
18076;SDS011;9165;45.714;11.362;2024-02-15T11:02:48;32.77;;;21.33;;
18076;SDS011;9165;45.714;11.362;2024-02-15T11:05:16;32.63;;;20.87;;
18076;SDS011;9165;45.714;11.362;2024-02-15T11:07:46;32.27;;;20.90;;
18076;SDS011;9165;45.714;11.362;2024-02-15T11:10:12;26.97;;;19.70;;
18076;SDS011;9165;45.714;11.362;2024-02-15T11:12:43;33.80;;;21.67;;
18076;SDS011;9165;45.714;11.362;2024-02-15T11:15:10;30.03;;;20.83;;
18076;SDS011;9165;45.714;11.362;2024-02-15T11:17:46;32.47;;;20.50;;
18076;SDS011;9165;45.714;11.362;2024-02-15T11:23:04;32.67;;;24.43;;
18076;SDS011;9165;45.714;11.362;2024-02-15T11:25:31;39.53;;;24.03;;
18076;SDS011;9165;45.714;11.362;2024-02-15T11:28:00;34.77;;;24.77;;
18076;SDS011;9165;45.714;11.362;2024-02-15T11:30:47;33.33;;;23.57;;
18076;SDS011;9165;45.714;11.362;2024-02-15T11:33:24;35.00;;;25.57;;
18076;SDS011;9165;45.714;11.362;2024-02-15T11:36:01;38.53;;;27.10;;
18076;SDS011;9165;45.714;11.362;2024-02-15T11:38:28;37.00;;;28.10;;
18076;SDS011;9165;45.714;11.362;2024-02-15T11:41:02;40.90;;;27.67;;
18076;SDS011;9165;45.714;11.362;2024-02-15T11:46:25;39.33;;;29.77;;
18076;SDS011;9165;45.714;11.362;2024-02-15T11:48:55;37.30;;;28.87;;
18076;SDS011;9165;45.714;11.362;2024-02-15T11:51:28;40.20;;;28.63;;
18076;SDS011;9165;45.714;11.362;2024-02-15T11:53:59;43.70;;;32.17;;
18076;SDS011;9165;45.714;11.362;2024-02-15T11:56:25;43.70;;;30.67;;
18076;SDS011;9165;45.714;11.362;2024-02-15T11:59:01;41.27;;;30.57;;
18076;SDS011;9165;45.714;11.362;2024-02-15T12:01:32;47.27;;;31.90;;
18076;SDS011;9165;45.714;11.362;2024-02-15T12:04:16;49.53;;;32.73;;
18076;SDS011;9165;45.714;11.362;2024-02-15T12:06:59;39.83;;;29.70;;
18076;SDS011;9165;45.714;11.362;2024-02-15T12:09:43;44.57;;;33.20;;
18076;SDS011;9165;45.714;11.362;2024-02-15T12:12:27;45.43;;;32.27;;
18076;SDS011;9165;45.714;11.362;2024-02-15T12:15:11;48.07;;;33.90;;
18076;SDS011;9165;45.714;11.362;2024-02-15T12:17:56;44.43;;;32.00;;
18076;SDS011;9165;45.714;11.362;2024-02-15T12:20:58;47.73;;;32.73;;
18076;SDS011;9165;45.714;11.362;2024-02-15T12:23:25;52.13;;;31.97;;
18076;SDS011;9165;45.714;11.362;2024-02-15T12:25:52;53.47;;;35.03;;
18076;SDS011;9165;45.714;11.362;2024-02-15T12:28:18;45.17;;;31.90;;
18076;SDS011;9165;45.714;11.362;2024-02-15T12:30:45;52.40;;;34.03;;
18076;SDS011;9165;45.714;11.362;2024-02-15T12:33:13;48.27;;;33.37;;
18076;SDS011;9165;45.714;11.362;2024-02-15T12:35:45;49.07;;;33.47;;
18076;SDS011;9165;45.714;11.362;2024-02-15T12:38:12;42.47;;;32.43;;
18076;SDS011;9165;45.714;11.362;2024-02-15T12:40:41;46.23;;;33.43;;
18076;SDS011;9165;45.714;11.362;2024-02-15T12:43:08;44.77;;;31.27;;
18076;SDS011;9165;45.714;11.362;2024-02-15T12:45:35;44.80;;;33.40;;
18076;SDS011;9165;45.714;11.362;2024-02-15T12:48:03;50.07;;;32.67;;
18076;SDS011;9165;45.714;11.362;2024-02-15T12:50:31;50.63;;;34.20;;
18076;SDS011;9165;45.714;11.362;2024-02-15T12:52:58;47.87;;;32.90;;
18076;SDS011;9165;45.714;11.362;2024-02-15T12:55:28;47.97;;;32.97;;
18076;SDS011;9165;45.714;11.362;2024-02-15T12:57:59;48.10;;;33.10;;
18076;SDS011;9165;45.714;11.362;2024-02-15T13:00:29;45.70;;;33.00;;
18076;SDS011;9165;45.714;11.362;2024-02-15T13:02:57;53.87;;;33.30;;
18076;SDS011;9165;45.714;11.362;2024-02-15T13:05:25;48.87;;;33.30;;
18076;SDS011;9165;45.714;11.362;2024-02-15T13:07:53;56.57;;;32.87;;
18076;SDS011;9165;45.714;11.362;2024-02-15T13:10:21;48.90;;;32.60;;
18076;SDS011;9165;45.714;11.362;2024-02-15T13:12:47;54.67;;;32.10;;
18076;SDS011;9165;45.714;11.362;2024-02-15T13:15:15;46.40;;;32.67;;
18076;SDS011;9165;45.714;11.362;2024-02-15T13:17:43;50.00;;;31.77;;
18076;SDS011;9165;45.714;11.362;2024-02-15T13:20:10;47.70;;;32.23;;
18076;SDS011;9165;45.714;11.362;2024-02-15T13:22:39;47.73;;;33.50;;
18076;SDS011;9165;45.714;11.362;2024-02-15T13:25:07;52.23;;;30.87;;
18076;SDS011;9165;45.714;11.362;2024-02-15T13:27:34;43.17;;;29.83;;
18076;SDS011;9165;45.714;11.362;2024-02-15T13:30:01;39.50;;;22.63;;
18076;SDS011;9165;45.714;11.362;2024-02-15T13:32:28;67.57;;;28.37;;
18076;SDS011;9165;45.714;11.362;2024-02-15T13:34:55;44.17;;;29.80;;
18076;SDS011;9165;45.714;11.362;2024-02-15T13:37:24;109.43;;;33.83;;
18076;SDS011;9165;45.714;11.362;2024-02-15T13:39:51;60.23;;;32.33;;
18076;SDS011;9165;45.714;11.362;2024-02-15T13:42:19;49.37;;;31.10;;
18076;SDS011;9165;45.714;11.362;2024-02-15T13:44:46;43.40;;;28.07;;
18076;SDS011;9165;45.714;11.362;2024-02-15T13:47:13;42.37;;;28.67;;
18076;SDS011;9165;45.714;11.362;2024-02-15T13:49:41;50.93;;;29.20;;
18076;SDS011;9165;45.714;11.362;2024-02-15T13:52:08;114.87;;;65.10;;
18076;SDS011;9165;45.714;11.362;2024-02-15T13:54:36;51.63;;;32.67;;
18076;SDS011;9165;45.714;11.362;2024-02-15T13:57:03;47.40;;;28.70;;
18076;SDS011;9165;45.714;11.362;2024-02-15T13:59:34;43.00;;;27.30;;
18076;SDS011;9165;45.714;11.362;2024-02-15T14:02:01;42.97;;;27.17;;
18076;SDS011;9165;45.714;11.362;2024-02-15T14:04:41;61.47;;;33.33;;
18076;SDS011;9165;45.714;11.362;2024-02-15T14:09:51;52.83;;;26.57;;
18076;SDS011;9165;45.714;11.362;2024-02-15T14:12:17;39.90;;;26.03;;
18076;SDS011;9165;45.714;11.362;2024-02-15T14:14:53;46.03;;;26.73;;
18076;SDS011;9165;45.714;11.362;2024-02-15T14:17:21;41.47;;;27.90;;
18076;SDS011;9165;45.714;11.362;2024-02-15T14:19:47;48.97;;;28.53;;
18076;SDS011;9165;45.714;11.362;2024-02-15T14:22:17;47.03;;;27.70;;
18076;SDS011;9165;45.714;11.362;2024-02-15T14:24:48;47.73;;;30.77;;
18076;SDS011;9165;45.714;11.362;2024-02-15T14:27:15;45.63;;;27.37;;
18076;SDS011;9165;45.714;11.362;2024-02-15T14:29:42;64.07;;;29.03;;
18076;SDS011;9165;45.714;11.362;2024-02-15T14:32:32;41.63;;;27.87;;
18076;SDS011;9165;45.714;11.362;2024-02-15T14:35:17;46.47;;;28.60;;
18076;SDS011;9165;45.714;11.362;2024-02-15T14:37:46;46.10;;;29.17;;
18076;SDS011;9165;45.714;11.362;2024-02-15T14:40:21;44.30;;;28.03;;
18076;SDS011;9165;45.714;11.362;2024-02-15T14:42:48;45.30;;;29.23;;
18076;SDS011;9165;45.714;11.362;2024-02-15T14:45:14;44.47;;;27.63;;
18076;SDS011;9165;45.714;11.362;2024-02-15T14:47:42;44.73;;;28.77;;
18076;SDS011;9165;45.714;11.362;2024-02-15T14:50:10;45.47;;;29.47;;
18076;SDS011;9165;45.714;11.362;2024-02-15T14:52:38;45.27;;;29.40;;
18076;SDS011;9165;45.714;11.362;2024-02-15T14:55:06;44.13;;;28.87;;
18076;SDS011;9165;45.714;11.362;2024-02-15T14:57:39;47.63;;;30.47;;
18076;SDS011;9165;45.714;11.362;2024-02-15T15:02:44;52.13;;;30.87;;
18076;SDS011;9165;45.714;11.362;2024-02-15T15:05:37;48.10;;;29.90;;
18076;SDS011;9165;45.714;11.362;2024-02-15T15:08:21;51.37;;;30.73;;
18076;SDS011;9165;45.714;11.362;2024-02-15T15:11:05;49.73;;;31.60;;
18076;SDS011;9165;45.714;11.362;2024-02-15T15:13:49;46.77;;;30.03;;
18076;SDS011;9165;45.714;11.362;2024-02-15T15:16:17;46.90;;;30.13;;
18076;SDS011;9165;45.714;11.362;2024-02-15T15:18:46;50.47;;;30.90;;